LDPLLDDU

Guest
Details From LDPL - Pula
To LDDU - DUBROVNIK
Flight Number -
Tags generated
Created
Modified
Stats Distance 235 nm / 436 km
Max Altitude 27,900 ft / 8,504 m
Waypoints 4
Social Downloads 3
Likes 1
Share VATSIM

Download

Looking for another format? Having issues loading an existing format? Contact us
Advertisement - Login to hide

Notes

Basic altitude profile: - Ascent Rate: 2500ft/min - Ascent Speed: 250kts - Cruise Altitude: 35000ft - Cruise Speed: 420kts - Descent Rate: 1500ft/min - Descent Speed: 250kts Options: - Use NATs: yes - Use PACOTS: yes - Use low airways: yes - Use high airways: yes

Route

LDPL ZDA UL607 SPL LDDU

ID Type Via Altitude Latitude Longitude Leg Dist Tot Dist Heading (true) Name
O LDPL APT - 0 ft / 0 m 44.89353˚ 13.92216˚ - 0 nm - Pula
ZDA VOR - 27,900 ft / 8,504 m 44.09532˚ 15.36421˚ 78 nm 78 nm 127° / 128° ZADAR VOR-DME
SPL VOR UL607 (AWY-HI) 27,500 ft / 8,382 m 43.49658˚ 16.30472˚ 54 nm 132 nm 131° / 132° SPLIT VOR-DME
O LDDU APT - 0 ft / 0 m 42.56284˚ 18.26450˚ 102 nm 235 nm 122° / 124° DUBROVNIK

Altitude Profile

Advertisement - Login to hide

Weather


0- 5 10 15 20 25 30 35+ Temperature / ° C

Clouds and Precipitation
Forecast for 2018-05-28 00:00 UTC. Updated 3 hours ago

Ground ~20,000 ft ~40,000 ft Winds

LDPL

Details ICAO LDPL (PUY)
Name Pula
Region Croatia
Timezone Europe/Zagreb (UTC+2.0)
Stats Elevation 274 ft / 84 m (AMSL)
Location 44.893531° 13.922156°
Runways 1
Magnetic Variation 3.524° E

METAR

LDPL 280130Z 06001KT CAVOK 19/16 Q1017

Decode

TAF

TAF LDPL 272325Z 2800/2900 VRB02KT CAVOK TX27/2813Z TN16/2803Z TEMPO 2803/2808 09006KT BECMG 2811/2813 28008KT BECMG 2818/2820 VRB02KT

Decode

Departure Runways

ID Width Length Bearing (true) Bearing (mag) Surface Threshold Offset Overrun Length
09 148 ft / 45 m 9,601 ft / 2,926 m 88.24° 84.72° Asphalt 250 ft / 76 m 0 ft / 0 m
27 148 ft / 45 m 9,601 ft / 2,926 m 268.27° 264.75° Asphalt 250 ft / 76 m 0 ft / 0 m

LDDU

Details ICAO LDDU (DBV)
Name DUBROVNIK
Region Croatia
Timezone Europe/Zagreb (UTC+2.0)
Stats Elevation 527 ft / 161 m (AMSL)
Location 42.562840° 18.264499°
Runways 1
Magnetic Variation 4.147° E

METAR

LDDU 280130Z VRB01KT CAVOK 21/14 Q1017

Decode

TAF

TAF LDDU 272325Z 2800/2900 08005KT CAVOK TX27/2809Z TN22/2804Z TEMPO 2809/2812 26008KT BECMG 2811/2813 29010KT BECMG 2816/2818 30005KT

Decode

Destination Runways

ID Width Length Bearing (true) Bearing (mag) Surface Threshold Offset Overrun Length
12 148 ft / 45 m 10,803 ft / 3,293 m 118.30° 114.15° Asphalt 488 ft / 149 m 100 ft / 30 m
30 148 ft / 45 m 10,803 ft / 3,293 m 298.33° 294.18° Asphalt 0 ft / 0 m 100 ft / 30 m

Approach Navaids

Runway Type Ident Frequency Range Bearing (true) Bearing (mag) Slope Elevation
12 Localiser IDU 110.10 MHz 25 nm / 46 km 118.21° 114.06° - 469 ft / 143 m (AMSL)
12 Glidescope IDU 110.10 MHz 25 nm / 46 km 118.21° 114.06° 3.00° 502 ft / 153 m (AMSL)

Popular Alternatives